Time,TemperatureF,DewpointF,PressureIn,WindDirection,WindDirectionDegrees,WindSpeedMPH,WindSpeedGustMPH,Humidity,HourlyPrecipIn,Conditions,Clouds,dailyrainin,SoftwareType,DateUTC
2013-01-16 00:00:00,28.2,22.8,30.23,SW,236,0.0,0.0,80,0.00,,,0.00,Wunderground v.1.13,2013-01-16 05:00:00,
2013-01-16 00:01:00,28.3,22.9,30.23,SW,236,0.0,0.0,80,0.00,,,0.00,Wunderground v.1.13,2013-01-16 05:01:00,
2013-01-16 00:03:00,28.3,23.2,30.23,SW,236,0.0,0.0,81,0.00,,,0.00,Wunderground v.1.13,2013-01-16 05:03:00,
2013-01-16 00:07:00,28.4,23.3,30.23,SW,236,0.0,0.0,81,0.00,,,0.00,Wunderground v.1.13,2013-01-16 05:07:00,
2013-01-16 00:12:00,28.4,23.0,30.23,SW,236,0.0,0.0,80,0.00,,,0.00,Wunderground v.1.13,2013-01-16 05:12:00,
2013-01-16 00:17:00,28.5,23.1,30.23,SW,236,0.0,0.0,80,0.00,,,0.00,Wunderground v.1.13,2013-01-16 05:17:00,
2013-01-16 00:23:00,28.7,23.3,30.23,SW,236,0.0,0.0,80,0.00,,,0.00,Wunderground v.1.13,2013-01-16 05:23:00,
2013-01-16 00:28:00,28.6,23.2,30.24,SW,236,0.0,0.0,80,0.00,,,0.00,Wunderground v.1.13,2013-01-16 05:28:00,
2013-01-16 00:34:00,28.8,23.4,30.24,SW,236,0.0,0.0,80,0.00,,,0.00,Wunderground v.1.13,2013-01-16 05:34:00,
2013-01-16 00:39:00,28.8,23.1,30.23,SW,236,0.0,0.0,79,0.00,,,0.00,Wunderground v.1.13,2013-01-16 05:39:00,
2013-01-16 00:45:00,28.5,23.1,30.23,SW,236,0.0,0.0,80,0.00,,,0.00,Wunderground v.1.13,2013-01-16 05:45:00,
2013-01-16 00:51:00,28.3,22.9,30.23,SW,236,0.0,0.0,80,0.00,,,0.00,Wunderground v.1.13,2013-01-16 05:51:00,
2013-01-16 00:57:00,28.3,22.9,30.22,SW,236,0.0,0.0,80,0.00,,,0.00,Wunderground v.1.13,2013-01-16 05:57:00,
2013-01-16 01:03:00,28.1,23.0,30.22,SW,236,0.0,0.0,81,0.00,,,0.00,Wunderground v.1.13,2013-01-16 06:03:00,
2013-01-16 01:08:00,28.2,23.4,30.22,SW,236,0.0,0.0,82,0.00,,,0.00,Wunderground v.1.13,2013-01-16 06:08:00,
2013-01-16 01:14:00,28.3,23.5,30.21,SW,236,0.0,0.0,82,0.00,,,0.00,Wunderground v.1.13,2013-01-16 06:14:00,
2013-01-16 01:20:00,28.3,23.2,30.21,SW,236,0.0,0.0,81,0.00,,,0.00,Wunderground v.1.13,2013-01-16 06:20:00,
2013-01-16 01:26:00,28.2,23.1,30.21,SW,236,0.0,0.0,81,0.00,,,0.00,Wunderground v.1.13,2013-01-16 06:26:00,
2013-01-16 01:31:00,28.3,23.5,30.21,SW,236,0.0,0.0,82,0.00,,,0.00,Wunderground v.1.13,2013-01-16 06:31:00,
2013-01-16 01:37:00,28.5,23.7,30.22,SW,236,0.0,0.0,82,0.00,,,0.00,Wunderground v.1.13,2013-01-16 06:37:00,
2013-01-16 01:42:00,28.6,23.5,30.22,SW,236,0.0,0.0,81,0.00,,,0.00,Wunderground v.1.13,2013-01-16 06:42:00,
2013-01-16 01:47:00,28.6,23.5,30.22,SW,236,0.0,0.0,81,0.00,,,0.00,Wunderground v.1.13,2013-01-16 06:47:00,
2013-01-16 01:52:00,28.7,23.6,30.22,SW,236,0.0,0.0,81,0.00,,,0.00,Wunderground v.1.13,2013-01-16 06:52:00,
2013-01-16 01:58:00,28.8,23.7,30.22,SW,236,0.0,0.0,81,0.00,,,0.00,Wunderground v.1.13,2013-01-16 06:58:00,
2013-01-16 02:03:00,28.9,23.5,30.22,SW,236,1.0,1.0,80,0.00,,,0.00,Wunderground v.1.13,2013-01-16 07:03:00,
2013-01-16 02:08:00,29.0,23.6,30.22,SW,236,0.0,0.0,80,0.00,,,0.00,Wunderground v.1.13,2013-01-16 07:08:00,
2013-01-16 02:13:00,29.0,23.9,30.23,SW,236,0.0,0.0,81,0.00,,,0.00,Wunderground v.1.13,2013-01-16 07:13:00,
2013-01-16 02:19:00,29.1,23.7,30.23,SW,236,0.0,0.0,80,0.00,,,0.00,Wunderground v.1.13,2013-01-16 07:19:00,
2013-01-16 02:24:00,29.2,23.8,30.23,SW,236,0.0,0.0,80,0.00,,,0.00,Wunderground v.1.13,2013-01-16 07:24:00,
2013-01-16 02:29:00,29.2,23.8,30.23,SW,236,0.0,0.0,80,0.00,,,0.00,Wunderground v.1.13,2013-01-16 07:29:00,
2013-01-16 02:34:00,29.1,23.7,30.23,SW,236,0.0,0.0,80,0.00,,,0.00,Wunderground v.1.13,2013-01-16 07:34:00,
2013-01-16 02:39:00,29.1,23.7,30.22,SW,236,0.0,0.0,80,0.00,,,0.00,Wunderground v.1.13,2013-01-16 07:39:00,
2013-01-16 02:44:00,29.0,23.6,30.22,SW,236,0.0,0.0,80,0.00,,,0.00,Wunderground v.1.13,2013-01-16 07:44:00,
2013-01-16 02:49:00,28.9,23.5,30.22,SW,236,0.0,0.0,80,0.00,,,0.00,Wunderground v.1.13,2013-01-16 07:49:00,
2013-01-16 02:54:00,28.6,23.2,30.21,SW,236,0.0,1.0,80,0.00,,,0.00,Wunderground v.1.13,2013-01-16 07:54:00,
2013-01-16 03:00:00,28.6,23.5,30.21,SW,236,0.0,0.0,81,0.00,,,0.00,Wunderground v.1.13,2013-01-16 08:00:00,
2013-01-16 03:05:00,28.7,23.6,30.21,SW,236,0.0,0.0,81,0.00,,,0.00,Wunderground v.1.13,2013-01-16 08:05:00,
2013-01-16 03:10:00,28.5,23.4,30.20,SW,236,0.0,0.0,81,0.00,,,0.00,Wunderground v.1.13,2013-01-16 08:10:00,
2013-01-16 03:15:00,28.4,23.3,30.19,SW,236,0.0,0.0,81,0.00,,,0.00,Wunderground v.1.13,2013-01-16 08:15:00,
2013-01-16 03:20:00,28.4,23.3,30.19,SW,236,0.0,0.0,81,0.00,,,0.00,Wunderground v.1.13,2013-01-16 08:20:00,
2013-01-16 03:25:00,28.3,23.2,30.18,SW,236,0.0,0.0,81,0.00,,,0.00,Wunderground v.1.13,2013-01-16 08:25:00,
2013-01-16 03:30:00,28.3,23.5,30.18,SW,236,0.0,0.0,82,0.00,,,0.00,Wunderground v.1.13,2013-01-16 08:30:00,
2013-01-16 03:35:00,28.4,23.6,30.18,SW,236,0.0,0.0,82,0.00,,,0.00,Wunderground v.1.13,2013-01-16 08:35:00,
2013-01-16 03:40:00,28.6,23.8,30.18,SW,236,0.0,0.0,82,0.00,,,0.00,Wunderground v.1.13,2013-01-16 08:40:00,
2013-01-16 03:46:00,28.6,23.5,30.18,SW,236,0.0,0.0,81,0.00,,,0.00,Wunderground v.1.13,2013-01-16 08:46:00,
2013-01-16 03:51:00,28.6,23.8,30.17,SW,236,0.0,0.0,82,0.00,,,0.00,Wunderground v.1.13,2013-01-16 08:51:00,
2013-01-16 03:56:00,28.7,24.5,30.17,SW,236,0.0,0.0,84,0.00,,,0.00,Wunderground v.1.13,2013-01-16 08:56:00,
2013-01-16 04:01:00,28.7,24.5,30.16,SW,236,0.0,0.0,84,0.00,,,0.00,Wunderground v.1.13,2013-01-16 09:01:00,
2013-01-16 04:06:00,28.7,24.8,30.17,SW,236,0.0,0.0,85,0.00,,,0.01,Wunderground v.1.13,2013-01-16 09:06:00,
2013-01-16 04:11:00,28.5,24.6,30.16,SW,236,0.0,0.0,85,0.00,,,0.01,Wunderground v.1.13,2013-01-16 09:11:00,
2013-01-16 04:16:00,28.4,24.7,30.15,SW,236,0.0,0.0,86,0.00,,,0.01,Wunderground v.1.13,2013-01-16 09:16:00,
2013-01-16 04:22:00,28.4,25.0,30.14,SW,236,0.0,0.0,87,0.04,,,0.02,Wunderground v.1.13,2013-01-16 09:22:00,
2013-01-16 04:27:00,28.3,24.9,30.14,SW,236,0.0,0.0,87,0.04,,,0.02,Wunderground v.1.13,2013-01-16 09:27:00,
2013-01-16 04:32:00,28.1,24.7,30.14,SW,236,0.0,0.0,87,0.05,,,0.03,Wunderground v.1.13,2013-01-16 09:32:00,
2013-01-16 04:37:00,27.9,24.5,30.14,SW,236,0.0,0.0,87,0.05,,,0.03,Wunderground v.1.13,2013-01-16 09:37:00,
2013-01-16 04:42:00,27.6,24.2,30.15,SW,236,0.0,0.0,87,0.07,,,0.04,Wunderground v.1.13,2013-01-16 09:42:00,
2013-01-16 04:48:00,27.2,24.1,30.15,SW,236,0.0,0.0,88,0.07,,,0.04,Wunderground v.1.13,2013-01-16 09:48:00,
2013-01-16 04:53:00,26.9,24.1,30.14,SW,236,0.0,0.0,89,0.06,,,0.05,Wunderground v.1.13,2013-01-16 09:53:00,
2013-01-16 04:58:00,26.9,24.4,30.14,SW,236,0.0,0.0,90,0.06,,,0.05,Wunderground v.1.13,2013-01-16 09:58:00,
2013-01-16 05:03:00,26.8,24.3,30.13,SW,236,0.0,0.0,90,0.05,,,0.06,Wunderground v.1.13,2013-01-16 10:03:00,
2013-01-16 05:09:00,26.9,24.4,30.12,SW,236,0.0,0.0,90,0.05,,,0.06,Wunderground v.1.13,2013-01-16 10:09:00,
2013-01-16 05:14:00,27.1,24.6,30.12,SW,236,0.0,0.0,90,0.06,,,0.07,Wunderground v.1.13,2013-01-16 10:14:00,
2013-01-16 05:19:00,27.3,25.0,30.13,SW,236,0.0,0.0,91,0.06,,,0.07,Wunderground v.1.13,2013-01-16 10:19:00,
2013-01-16 05:24:00,27.5,25.2,30.11,SW,236,0.0,0.0,91,0.07,,,0.08,Wunderground v.1.13,2013-01-16 10:24:00,
2013-01-16 05:29:00,27.6,25.3,30.11,SW,236,0.0,0.0,91,0.06,,,0.08,Wunderground v.1.13,2013-01-16 10:29:00,
2013-01-16 05:34:00,27.7,25.4,30.12,SW,236,0.0,0.0,91,0.06,,,0.09,Wunderground v.1.13,2013-01-16 10:34:00,
2013-01-16 05:39:00,27.8,25.2,30.11,SW,236,0.0,0.0,90,0.08,,,0.10,Wunderground v.1.13,2013-01-16 10:39:00,
2013-01-16 05:44:00,27.7,25.2,30.11,SW,236,0.0,1.0,90,0.08,,,0.10,Wunderground v.1.13,2013-01-16 10:44:00,
2013-01-16 05:50:00,27.7,25.2,30.10,SW,236,0.0,0.0,90,0.05,,,0.11,Wunderground v.1.13,2013-01-16 10:50:00,
2013-01-16 05:55:00,27.6,25.1,30.11,SW,236,0.0,0.0,90,0.05,,,0.11,Wunderground v.1.13,2013-01-16 10:55:00,
2013-01-16 06:00:00,27.6,25.1,30.11,SW,236,0.0,0.0,90,0.06,,,0.12,Wunderground v.1.13,2013-01-16 11:00:00,
2013-01-16 06:05:00,27.6,25.1,30.11,SW,236,0.0,0.0,90,0.06,,,0.12,Wunderground v.1.13,2013-01-16 11:05:00,
2013-01-16 06:10:00,27.5,25.0,30.12,SW,236,0.0,0.0,90,0.05,,,0.12,Wunderground v.1.13,2013-01-16 11:10:00,
2013-01-16 06:15:00,27.3,24.8,30.12,SW,236,0.0,0.0,90,0.04,,,0.13,Wunderground v.1.13,2013-01-16 11:15:00,
2013-01-16 06:20:00,27.3,24.8,30.11,SW,236,0.0,0.0,90,0.04,,,0.13,Wunderground v.1.13,2013-01-16 11:20:00,
2013-01-16 06:25:00,27.4,25.1,30.12,SW,236,0.0,0.0,91,0.04,,,0.13,Wunderground v.1.13,2013-01-16 11:25:00,
2013-01-16 06:30:00,27.4,24.9,30.12,SW,236,0.0,0.0,90,0.04,,,0.13,Wunderground v.1.13,2013-01-16 11:30:00,
2013-01-16 06:35:00,27.3,25.0,30.11,SW,236,0.0,0.0,91,0.00,,,0.13,Wunderground v.1.13,2013-01-16 11:35:00,
2013-01-16 06:40:00,27.3,25.0,30.11,SW,236,0.0,0.0,91,0.00,,,0.14,Wunderground v.1.13,2013-01-16 11:40:00,
2013-01-16 06:45:00,27.3,25.0,30.11,SW,236,0.0,0.0,91,0.00,,,0.14,Wunderground v.1.13,2013-01-16 11:45:00,
2013-01-16 06:51:00,27.3,25.0,30.10,SW,236,0.0,0.0,91,0.00,,,0.14,Wunderground v.1.13,2013-01-16 11:51:00,
2013-01-16 06:56:00,27.2,24.9,30.10,SW,236,0.0,0.0,91,0.04,,,0.15,Wunderground v.1.13,2013-01-16 11:56:00,
2013-01-16 07:01:00,27.2,24.9,30.10,SW,236,0.0,0.0,91,0.04,,,0.15,Wunderground v.1.13,2013-01-16 12:01:00,
2013-01-16 07:06:00,27.2,24.9,30.10,SW,236,0.0,0.0,91,0.04,,,0.15,Wunderground v.1.13,2013-01-16 12:06:00,
2013-01-16 07:11:00,27.4,25.1,30.10,SW,236,0.0,0.0,91,0.00,,,0.15,Wunderground v.1.13,2013-01-16 12:11:00,
2013-01-16 07:16:00,27.5,25.2,30.10,SW,236,0.0,0.0,91,0.00,,,0.15,Wunderground v.1.13,2013-01-16 12:16:00,
2013-01-16 07:21:00,27.5,25.2,30.09,SW,236,0.0,0.0,91,0.00,,,0.15,Wunderground v.1.13,2013-01-16 12:21:00,
2013-01-16 07:27:00,27.6,25.3,30.09,SW,236,0.0,0.0,91,0.00,,,0.16,Wunderground v.1.13,2013-01-16 12:27:00,
2013-01-16 07:32:00,27.6,25.3,30.09,SW,236,0.0,1.0,91,0.00,,,0.16,Wunderground v.1.13,2013-01-16 12:32:00,
2013-01-16 07:37:00,27.5,25.0,30.09,SW,236,0.0,0.0,90,0.00,,,0.16,Wunderground v.1.13,2013-01-16 12:37:00,
2013-01-16 07:42:00,27.5,25.0,30.09,SW,236,0.0,0.0,90,0.00,,,0.17,Wunderground v.1.13,2013-01-16 12:42:00,
2013-01-16 07:47:00,27.5,25.2,30.09,SW,236,0.0,0.0,91,0.00,,,0.17,Wunderground v.1.13,2013-01-16 12:47:00,
2013-01-16 07:52:00,27.5,25.2,30.09,SW,236,0.0,0.0,91,0.00,,,0.17,Wunderground v.1.13,2013-01-16 12:52:00,
2013-01-16 07:57:00,27.4,25.1,30.09,SW,236,0.0,0.0,91,0.00,,,0.17,Wunderground v.1.13,2013-01-16 12:57:00,
2013-01-16 08:03:00,27.4,25.1,30.08,SW,236,0.0,0.0,91,0.00,,,0.18,Wunderground v.1.13,2013-01-16 13:03:00,
2013-01-16 08:08:00,27.4,25.1,30.08,SW,236,0.0,0.0,91,0.00,,,0.18,Wunderground v.1.13,2013-01-16 13:08:00,
2013-01-16 08:13:00,27.4,25.1,30.09,SW,236,0.0,0.0,91,0.00,,,0.18,Wunderground v.1.13,2013-01-16 13:13:00,
2013-01-16 08:18:00,27.3,25.0,30.09,SW,236,0.0,0.0,91,0.04,,,0.19,Wunderground v.1.13,2013-01-16 13:18:00,
2013-01-16 08:23:00,27.4,25.1,30.09,SW,236,0.0,0.0,91,0.04,,,0.19,Wunderground v.1.13,2013-01-16 13:23:00,
2013-01-16 08:28:00,27.6,25.3,30.07,SW,236,0.0,1.0,91,0.04,,,0.19,Wunderground v.1.13,2013-01-16 13:28:00,
2013-01-16 08:33:00,27.7,25.4,30.08,SW,236,0.0,0.0,91,0.00,,,0.19,Wunderground v.1.13,2013-01-16 13:33:00,
2013-01-16 08:38:00,27.6,25.3,30.07,SW,236,0.0,0.0,91,0.00,,,0.20,Wunderground v.1.13,2013-01-16 13:38:00,
2013-01-16 08:44:00,27.5,25.2,30.07,SW,236,0.0,0.0,91,0.00,,,0.20,Wunderground v.1.13,2013-01-16 13:44:00,
2013-01-16 08:49:00,27.4,25.1,30.07,SW,236,0.0,0.0,91,0.00,,,0.20,Wunderground v.1.13,2013-01-16 13:49:00,
2013-01-16 08:55:00,27.4,25.4,30.06,SW,236,0.0,0.0,92,0.00,,,0.20,Wunderground v.1.13,2013-01-16 13:55:00,
2013-01-16 08:59:00,27.5,25.5,30.07,SW,236,0.0,0.0,92,0.00,,,0.20,Wunderground v.1.13,2013-01-16 13:59:00,
2013-01-16 09:05:00,27.7,25.7,30.06,SW,236,0.0,0.0,92,0.00,,,0.20,Wunderground v.1.13,2013-01-16 14:05:00,
2013-01-16 09:10:00,27.9,25.9,30.06,SW,236,0.0,0.0,92,0.00,,,0.20,Wunderground v.1.13,2013-01-16 14:10:00,
2013-01-16 09:15:00,28.0,25.7,30.04,SW,224,0.0,1.0,91,0.00,,,0.20,Wunderground v.1.13,2013-01-16 14:15:00,
2013-01-16 09:20:00,28.0,25.7,30.03,SSW,209,0.0,0.0,91,0.00,,,0.21,Wunderground v.1.13,2013-01-16 14:20:00,
2013-01-16 09:25:00,28.1,25.8,30.02,SSE,150,0.0,1.0,91,0.00,,,0.21,Wunderground v.1.13,2013-01-16 14:25:00,
2013-01-16 09:30:00,28.0,25.4,30.01,SE,129,2.0,2.0,90,0.00,,,0.21,Wunderground v.1.13,2013-01-16 14:30:00,
2013-01-16 09:35:00,27.9,25.6,30.01,SE,129,0.0,0.0,91,0.00,,,0.21,Wunderground v.1.13,2013-01-16 14:35:00,
2013-01-16 09:40:00,28.0,25.7,30.01,SE,129,0.0,1.0,91,0.00,,,0.21,Wunderground v.1.13,2013-01-16 14:40:00,
2013-01-16 09:45:00,27.9,25.6,30.01,SE,129,0.0,0.0,91,0.00,,,0.21,Wunderground v.1.13,2013-01-16 14:45:00,
2013-01-16 09:50:00,28.0,25.7,30.02,SE,129,0.0,0.0,91,0.00,,,0.21,Wunderground v.1.13,2013-01-16 14:50:00,
2013-01-16 09:56:00,28.1,25.8,30.02,SE,129,0.0,0.0,91,0.00,,,0.21,Wunderground v.1.13,2013-01-16 14:56:00,
2013-01-16 10:01:00,28.3,26.0,30.02,SE,129,0.0,1.0,91,0.00,,,0.21,Wunderground v.1.13,2013-01-16 15:01:00,
2013-01-16 10:06:00,28.4,26.1,30.02,SE,129,0.0,0.0,91,0.00,,,0.21,Wunderground v.1.13,2013-01-16 15:06:00,
2013-01-16 10:11:00,28.5,26.2,30.03,SE,129,0.0,0.0,91,0.00,,,0.22,Wunderground v.1.13,2013-01-16 15:11:00,
2013-01-16 10:17:00,28.7,26.4,30.02,SE,129,0.0,1.0,91,0.00,,,0.22,Wunderground v.1.13,2013-01-16 15:17:00,
2013-01-16 10:22:00,28.7,26.4,30.02,ESE,121,0.0,2.0,91,0.00,,,0.22,Wunderground v.1.13,2013-01-16 15:22:00,
2013-01-16 10:27:00,28.6,26.3,30.01,East,87,0.0,1.0,91,0.00,,,0.23,Wunderground v.1.13,2013-01-16 15:27:00,
2013-01-16 10:32:00,28.7,26.4,30.00,East,87,0.0,1.0,91,0.00,,,0.23,Wunderground v.1.13,2013-01-16 15:32:00,
2013-01-16 10:37:00,28.6,26.3,29.99,East,87,0.0,1.0,91,0.00,,,0.23,Wunderground v.1.13,2013-01-16 15:37:00,
2013-01-16 10:42:00,28.5,26.2,29.99,East,87,0.0,0.0,91,0.00,,,0.23,Wunderground v.1.13,2013-01-16 15:42:00,
2013-01-16 10:47:00,28.6,26.6,29.98,East,87,0.0,0.0,92,0.00,,,0.24,Wunderground v.1.13,2013-01-16 15:47:00,
2013-01-16 10:52:00,28.7,26.7,29.98,East,87,0.0,0.0,92,0.00,,,0.24,Wunderground v.1.13,2013-01-16 15:52:00,
2013-01-16 10:57:00,28.7,26.4,29.98,East,87,0.0,0.0,91,0.00,,,0.24,Wunderground v.1.13,2013-01-16 15:57:00,
2013-01-16 11:02:00,28.8,26.8,29.97,East,87,0.0,0.0,92,0.00,,,0.24,Wunderground v.1.13,2013-01-16 16:02:00,
2013-01-16 11:07:00,29.0,27.0,29.97,East,87,0.0,0.0,92,0.00,,,0.24,Wunderground v.1.13,2013-01-16 16:07:00,
2013-01-16 11:12:00,29.1,27.1,29.97,East,87,0.0,0.0,92,0.00,,,0.24,Wunderground v.1.13,2013-01-16 16:12:00,
2013-01-16 11:17:00,29.1,26.8,29.96,East,87,0.0,0.0,91,0.00,,,0.24,Wunderground v.1.13,2013-01-16 16:17:00,
2013-01-16 11:23:00,29.0,26.7,29.95,East,87,0.0,0.0,91,0.00,,,0.24,Wunderground v.1.13,2013-01-16 16:23:00,
2013-01-16 11:28:00,29.2,26.9,29.95,East,87,0.0,0.0,91,0.00,,,0.25,Wunderground v.1.13,2013-01-16 16:28:00,
2013-01-16 11:33:00,29.4,27.1,29.95,East,87,0.0,0.0,91,0.00,,,0.25,Wunderground v.1.13,2013-01-16 16:33:00,
2013-01-16 11:38:00,29.6,27.3,29.95,East,87,0.0,0.0,91,0.00,,,0.25,Wunderground v.1.13,2013-01-16 16:38:00,
2013-01-16 11:43:00,29.6,27.3,29.95,East,87,0.0,1.0,91,0.04,,,0.26,Wunderground v.1.13,2013-01-16 16:43:00,
2013-01-16 11:48:00,29.6,27.3,29.94,East,87,0.0,0.0,91,0.04,,,0.26,Wunderground v.1.13,2013-01-16 16:48:00,
2013-01-16 11:53:00,29.7,27.4,29.94,East,87,0.0,0.0,91,0.04,,,0.26,Wunderground v.1.13,2013-01-16 16:53:00,
2013-01-16 11:58:00,29.9,27.6,29.94,East,87,0.0,0.0,91,0.04,,,0.26,Wunderground v.1.13,2013-01-16 16:58:00,
2013-01-16 12:04:00,29.9,27.6,29.94,East,87,0.0,0.0,91,0.00,,,0.27,Wunderground v.1.13,2013-01-16 17:04:00,
2013-01-16 12:09:00,29.9,27.3,29.93,East,87,0.0,0.0,90,0.00,,,0.27,Wunderground v.1.13,2013-01-16 17:09:00,
2013-01-16 12:14:00,29.8,27.2,29.94,East,87,0.0,2.0,90,0.06,,,0.28,Wunderground v.1.13,2013-01-16 17:14:00,
2013-01-16 12:19:00,29.6,27.0,29.94,East,87,0.0,1.0,90,0.06,,,0.28,Wunderground v.1.13,2013-01-16 17:19:00,
2013-01-16 12:24:00,29.7,27.4,29.93,East,87,0.0,1.0,91,0.06,,,0.29,Wunderground v.1.13,2013-01-16 17:24:00,
2013-01-16 12:29:00,30.0,27.7,29.94,East,87,0.0,0.0,91,0.09,,,0.30,Wunderground v.1.13,2013-01-16 17:29:00,
2013-01-16 12:34:00,30.2,27.9,29.93,East,87,0.0,0.0,91,0.08,,,0.31,Wunderground v.1.13,2013-01-16 17:34:00,
2013-01-16 12:39:00,30.5,28.2,29.92,East,87,0.0,0.0,91,0.08,,,0.31,Wunderground v.1.13,2013-01-16 17:39:00,
2013-01-16 12:44:00,30.6,28.0,29.91,East,87,0.0,0.0,90,0.06,,,0.32,Wunderground v.1.13,2013-01-16 17:44:00,
2013-01-16 12:49:00,30.6,28.0,29.91,East,87,0.0,0.0,90,0.06,,,0.32,Wunderground v.1.13,2013-01-16 17:49:00,
2013-01-16 12:55:00,30.8,28.2,29.91,East,87,0.0,0.0,90,0.05,,,0.32,Wunderground v.1.13,2013-01-16 17:55:00,
2013-01-16 13:00:00,30.9,28.3,29.91,East,87,0.0,0.0,90,0.04,,,0.32,Wunderground v.1.13,2013-01-16 18:00:00,
2013-01-16 13:05:00,31.0,28.1,29.90,East,87,0.0,0.0,89,0.00,,,0.32,Wunderground v.1.13,2013-01-16 18:05:00,
2013-01-16 13:10:00,31.1,28.2,29.89,East,87,0.0,0.0,89,0.00,,,0.32,Wunderground v.1.13,2013-01-16 18:10:00,
2013-01-16 13:15:00,30.8,27.9,29.86,East,87,0.0,1.0,89,0.00,,,0.33,Wunderground v.1.13,2013-01-16 18:15:00,
2013-01-16 13:20:00,30.4,27.5,29.86,East,87,0.0,0.0,89,0.00,,,0.33,Wunderground v.1.13,2013-01-16 18:20:00,
2013-01-16 13:25:00,30.2,27.6,29.84,East,87,0.0,0.0,90,0.00,,,0.33,Wunderground v.1.13,2013-01-16 18:25:00,
2013-01-16 13:30:00,30.1,27.8,29.87,East,87,0.0,0.0,91,0.00,,,0.33,Wunderground v.1.13,2013-01-16 18:30:00,
2013-01-16 13:35:00,30.2,27.9,29.85,East,87,0.0,0.0,91,0.00,,,0.33,Wunderground v.1.13,2013-01-16 18:35:00,
2013-01-16 13:40:00,30.1,27.8,29.86,East,87,0.0,0.0,91,0.00,,,0.33,Wunderground v.1.13,2013-01-16 18:40:00,
2013-01-16 13:45:00,30.1,27.8,29.87,East,87,0.0,0.0,91,0.00,,,0.33,Wunderground v.1.13,2013-01-16 18:45:00,
2013-01-16 13:50:00,30.3,28.0,29.87,East,87,0.0,0.0,91,0.00,,,0.33,Wunderground v.1.13,2013-01-16 18:50:00,
2013-01-16 13:55:00,30.4,28.1,29.86,East,87,0.0,0.0,91,0.00,,,0.33,Wunderground v.1.13,2013-01-16 18:55:00,
2013-01-16 14:01:00,30.6,28.3,29.87,East,87,0.0,0.0,91,0.00,,,0.33,Wunderground v.1.13,2013-01-16 19:01:00,
2013-01-16 14:06:00,30.7,28.4,29.86,East,87,0.0,0.0,91,0.00,,,0.33,Wunderground v.1.13,2013-01-16 19:06:00,
2013-01-16 14:11:00,30.7,28.4,29.86,East,87,0.0,0.0,91,0.00,,,0.34,Wunderground v.1.13,2013-01-16 19:11:00,
2013-01-16 14:16:00,30.7,28.4,29.86,East,87,0.0,0.0,91,0.00,,,0.34,Wunderground v.1.13,2013-01-16 19:16:00,
2013-01-16 14:21:00,30.9,28.6,29.86,East,87,0.0,0.0,91,0.00,,,0.34,Wunderground v.1.13,2013-01-16 19:21:00,
2013-01-16 14:26:00,31.1,28.8,29.86,East,87,0.0,0.0,91,0.00,,,0.34,Wunderground v.1.13,2013-01-16 19:26:00,
2013-01-16 14:31:00,31.1,28.8,29.87,East,87,0.0,0.0,91,0.00,,,0.35,Wunderground v.1.13,2013-01-16 19:31:00,
2013-01-16 14:36:00,31.2,28.9,29.87,East,87,0.0,0.0,91,0.00,,,0.35,Wunderground v.1.13,2013-01-16 19:36:00,
2013-01-16 14:41:00,31.4,29.1,29.87,East,87,0.0,0.0,91,0.00,,,0.35,Wunderground v.1.13,2013-01-16 19:41:00,
2013-01-16 14:47:00,31.5,29.2,29.87,East,87,0.0,0.0,91,0.00,,,0.35,Wunderground v.1.13,2013-01-16 19:47:00,
2013-01-16 14:52:00,31.6,29.0,29.87,East,87,0.0,0.0,90,0.00,,,0.35,Wunderground v.1.13,2013-01-16 19:52:00,
2013-01-16 14:57:00,31.7,29.1,29.87,East,87,0.0,0.0,90,0.00,,,0.35,Wunderground v.1.13,2013-01-16 19:57:00,
2013-01-16 15:02:00,31.7,28.8,29.85,East,87,0.0,0.0,89,0.00,,,0.35,Wunderground v.1.13,2013-01-16 20:02:00,
2013-01-16 15:07:00,31.6,28.7,29.86,East,87,0.0,0.0,89,0.00,,,0.35,Wunderground v.1.13,2013-01-16 20:07:00,
2013-01-16 15:12:00,31.5,28.9,29.86,East,87,0.0,0.0,90,0.00,,,0.35,Wunderground v.1.13,2013-01-16 20:12:00,
2013-01-16 15:17:00,31.4,28.8,29.86,East,87,0.0,0.0,90,0.00,,,0.35,Wunderground v.1.13,2013-01-16 20:17:00,
2013-01-16 15:22:00,31.3,28.7,29.85,East,87,0.0,0.0,90,0.00,,,0.35,Wunderground v.1.13,2013-01-16 20:22:00,
2013-01-16 15:28:00,31.2,28.6,29.85,East,87,0.0,0.0,90,0.00,,,0.35,Wunderground v.1.13,2013-01-16 20:28:00,
2013-01-16 15:33:00,31.0,28.4,29.85,East,87,0.0,0.0,90,0.00,,,0.35,Wunderground v.1.13,2013-01-16 20:33:00,
2013-01-16 15:38:00,30.8,28.2,29.85,East,87,0.0,0.0,90,0.00,,,0.36,Wunderground v.1.13,2013-01-16 20:38:00,
2013-01-16 15:43:00,30.8,28.2,29.84,East,87,0.0,0.0,90,0.00,,,0.36,Wunderground v.1.13,2013-01-16 20:43:00,
2013-01-16 15:48:00,30.9,28.6,29.84,East,87,0.0,0.0,91,0.00,,,0.36,Wunderground v.1.13,2013-01-16 20:48:00,
2013-01-16 15:53:00,31.0,28.4,29.85,East,87,0.0,0.0,90,0.00,,,0.36,Wunderground v.1.13,2013-01-16 20:53:00,
2013-01-16 15:58:00,31.0,28.7,29.84,East,87,0.0,0.0,91,0.00,,,0.36,Wunderground v.1.13,2013-01-16 20:58:00,
2013-01-16 16:03:00,31.0,28.7,29.84,East,87,0.0,0.0,91,0.00,,,0.36,Wunderground v.1.13,2013-01-16 21:03:00,
2013-01-16 16:08:00,31.0,28.4,29.84,East,87,0.0,0.0,90,0.00,,,0.36,Wunderground v.1.13,2013-01-16 21:08:00,
2013-01-16 16:13:00,30.8,28.5,29.85,East,87,0.0,0.0,91,0.00,,,0.36,Wunderground v.1.13,2013-01-16 21:13:00,
2013-01-16 16:18:00,30.8,28.5,29.84,East,87,0.0,0.0,91,0.00,,,0.36,Wunderground v.1.13,2013-01-16 21:18:00,
2013-01-16 16:23:00,30.9,28.6,29.85,East,87,0.0,0.0,91,0.00,,,0.36,Wunderground v.1.13,2013-01-16 21:23:00,
2013-01-16 16:29:00,31.0,28.7,29.85,East,87,0.0,0.0,91,0.00,,,0.36,Wunderground v.1.13,2013-01-16 21:29:00,
2013-01-16 16:34:00,31.0,28.7,29.85,East,87,0.0,0.0,91,0.00,,,0.36,Wunderground v.1.13,2013-01-16 21:34:00,
2013-01-16 16:39:00,30.9,28.6,29.84,East,87,0.0,0.0,91,0.00,,,0.36,Wunderground v.1.13,2013-01-16 21:39:00,
2013-01-16 16:44:00,31.0,28.7,29.84,East,87,0.0,0.0,91,0.00,,,0.36,Wunderground v.1.13,2013-01-16 21:44:00,
2013-01-16 16:49:00,30.9,28.6,29.83,East,87,0.0,0.0,91,0.00,,,0.36,Wunderground v.1.13,2013-01-16 21:49:00,
2013-01-16 16:54:00,30.8,28.5,29.84,East,87,0.0,0.0,91,0.00,,,0.36,Wunderground v.1.13,2013-01-16 21:54:00,
2013-01-16 16:59:00,30.7,28.4,29.83,East,87,0.0,0.0,91,0.00,,,0.36,Wunderground v.1.13,2013-01-16 21:59:00,
2013-01-16 17:04:00,30.6,28.3,29.84,East,87,0.0,0.0,91,0.00,,,0.36,Wunderground v.1.13,2013-01-16 22:04:00,
2013-01-16 17:09:00,30.4,28.1,29.84,East,87,0.0,0.0,91,0.00,,,0.36,Wunderground v.1.13,2013-01-16 22:09:00,
2013-01-16 17:14:00,30.3,28.0,29.83,East,87,0.0,0.0,91,0.00,,,0.36,Wunderground v.1.13,2013-01-16 22:14:00,
2013-01-16 17:20:00,30.2,28.2,29.83,East,87,0.0,0.0,92,0.00,,,0.36,Wunderground v.1.13,2013-01-16 22:20:00,
2013-01-16 17:25:00,30.2,28.2,29.83,East,87,0.0,0.0,92,0.00,,,0.36,Wunderground v.1.13,2013-01-16 22:25:00,
2013-01-16 17:30:00,29.9,27.9,29.83,East,87,0.0,0.0,92,0.00,,,0.36,Wunderground v.1.13,2013-01-16 22:30:00,
2013-01-16 17:35:00,29.9,27.9,29.83,East,87,0.0,0.0,92,0.00,,,0.36,Wunderground v.1.13,2013-01-16 22:35:00,
2013-01-16 17:40:00,29.9,27.9,29.83,East,87,0.0,0.0,92,0.00,,,0.36,Wunderground v.1.13,2013-01-16 22:40:00,
2013-01-16 17:45:00,29.9,27.9,29.83,East,87,0.0,0.0,92,0.00,,,0.36,Wunderground v.1.13,2013-01-16 22:45:00,
2013-01-16 17:50:00,29.9,27.9,29.82,East,87,0.0,0.0,92,0.00,,,0.36,Wunderground v.1.13,2013-01-16 22:50:00,
2013-01-16 17:55:00,29.9,28.1,29.82,East,87,0.0,0.0,93,0.00,,,0.36,Wunderground v.1.13,2013-01-16 22:55:00,
2013-01-16 18:00:00,30.2,28.4,29.83,SW,221,0.0,0.0,93,0.00,,,0.36,Wunderground v.1.13,2013-01-16 23:00:00,
2013-01-16 18:06:00,30.4,28.6,29.83,SW,222,0.0,0.0,93,0.00,,,0.36,Wunderground v.1.13,2013-01-16 23:06:00,
2013-01-16 18:11:00,30.5,28.7,29.83,SW,222,0.0,0.0,93,0.00,,,0.36,Wunderground v.1.13,2013-01-16 23:11:00,
2013-01-16 18:16:00,30.6,29.1,29.83,SW,222,0.0,0.0,94,0.00,,,0.36,Wunderground v.1.13,2013-01-16 23:16:00,
2013-01-16 18:21:00,30.7,29.2,29.83,SW,222,0.0,0.0,94,0.00,,,0.36,Wunderground v.1.13,2013-01-16 23:21:00,
2013-01-16 18:26:00,30.8,29.0,29.83,SW,222,0.0,0.0,93,0.00,,,0.36,Wunderground v.1.13,2013-01-16 23:26:00,
2013-01-16 18:31:00,30.9,29.1,29.83,SW,222,0.0,0.0,93,0.00,,,0.36,Wunderground v.1.13,2013-01-16 23:31:00,
2013-01-16 18:36:00,30.7,28.9,29.83,SW,222,0.0,0.0,93,0.00,,,0.36,Wunderground v.1.13,2013-01-16 23:36:00,
2013-01-16 18:41:00,30.6,28.8,29.83,SW,222,0.0,0.0,93,0.00,,,0.36,Wunderground v.1.13,2013-01-16 23:41:00,
2013-01-16 18:46:00,30.7,28.9,29.82,SW,222,0.0,0.0,93,0.00,,,0.36,Wunderground v.1.13,2013-01-16 23:46:00,
2013-01-16 18:52:00,30.7,28.9,29.83,SW,222,0.0,0.0,93,0.00,,,0.36,Wunderground v.1.13,2013-01-16 23:52:00,
2013-01-16 18:57:00,30.7,28.9,29.83,SW,222,0.0,0.0,93,0.00,,,0.36,Wunderground v.1.13,2013-01-16 23:57:00,
2013-01-16 19:02:00,30.6,28.8,29.83,SW,222,0.0,0.0,93,0.00,,,0.36,Wunderground v.1.13,2013-01-17 00:02:00,
2013-01-16 19:07:00,30.5,29.0,29.83,SW,222,0.0,0.0,94,0.00,,,0.36,Wunderground v.1.13,2013-01-17 00:07:00,
2013-01-16 19:13:00,30.5,28.7,29.83,SW,222,0.0,0.0,93,0.00,,,0.36,Wunderground v.1.13,2013-01-17 00:13:00,
2013-01-16 19:18:00,30.5,29.0,29.84,SW,222,0.0,0.0,94,0.00,,,0.36,Wunderground v.1.13,2013-01-17 00:18:00,
2013-01-16 19:23:00,30.4,28.9,29.84,SW,222,0.0,0.0,94,0.00,,,0.36,Wunderground v.1.13,2013-01-17 00:23:00,
2013-01-16 19:28:00,30.4,28.9,29.83,SW,221,0.0,0.0,94,0.00,,,0.36,Wunderground v.1.13,2013-01-17 00:28:00,
2013-01-16 19:33:00,30.4,28.9,29.83,SW,217,0.0,0.0,94,0.00,,,0.36,Wunderground v.1.13,2013-01-17 00:33:00,
2013-01-16 19:38:00,30.5,29.0,29.83,SW,217,0.0,0.0,94,0.00,,,0.36,Wunderground v.1.13,2013-01-17 00:38:00,
2013-01-16 19:44:00,30.8,29.3,29.83,SW,217,0.0,0.0,94,0.00,,,0.36,Wunderground v.1.13,2013-01-17 00:44:00,
2013-01-16 19:49:00,31.1,29.6,29.83,West,259,0.0,0.0,94,0.00,,,0.36,Wunderground v.1.13,2013-01-17 00:49:00,
2013-01-16 19:54:00,31.4,29.9,29.83,West,259,0.0,0.0,94,0.00,,,0.36,Wunderground v.1.13,2013-01-17 00:54:00,
2013-01-16 19:59:00,31.6,30.1,29.84,West,259,0.0,0.0,94,0.00,,,0.36,Wunderground v.1.13,2013-01-17 00:59:00,
2013-01-16 20:04:00,31.6,30.1,29.84,WSW,252,0.0,0.0,94,0.00,,,0.36,Wunderground v.1.13,2013-01-17 01:04:00,
2013-01-16 20:09:00,31.7,30.2,29.83,South,169,0.0,0.0,94,0.00,,,0.36,Wunderground v.1.13,2013-01-17 01:09:00,
2013-01-16 20:14:00,31.8,30.3,29.84,NW,306,0.0,0.0,94,0.00,,,0.36,Wunderground v.1.13,2013-01-17 01:14:00,
2013-01-16 20:19:00,31.9,30.4,29.84,SW,233,0.0,0.0,94,0.00,,,0.36,Wunderground v.1.13,2013-01-17 01:19:00,
2013-01-16 20:25:00,32.0,30.5,29.84,WSW,254,0.0,0.0,94,0.00,,,0.36,Wunderground v.1.13,2013-01-17 01:25:00,
2013-01-16 20:30:00,32.0,30.5,29.84,West,275,0.0,0.0,94,0.00,,,0.36,Wunderground v.1.13,2013-01-17 01:30:00,
2013-01-16 20:35:00,32.1,30.6,29.83,South,190,0.0,0.0,94,0.00,,,0.36,Wunderground v.1.13,2013-01-17 01:35:00,
2013-01-16 20:40:00,32.0,30.5,29.83,SW,221,0.0,0.0,94,0.00,,,0.36,Wunderground v.1.13,2013-01-17 01:40:00,
2013-01-16 20:45:00,32.0,30.5,29.83,West,267,0.0,0.0,94,0.00,,,0.36,Wunderground v.1.13,2013-01-17 01:45:00,
2013-01-16 20:50:00,32.0,30.5,29.83,WNW,296,0.0,0.0,94,0.00,,,0.36,Wunderground v.1.13,2013-01-17 01:50:00,
2013-01-16 20:55:00,32.0,30.5,29.83,West,267,0.0,0.0,94,0.00,,,0.36,Wunderground v.1.13,2013-01-17 01:55:00,
2013-01-16 21:00:00,32.0,30.5,29.83,North,360,2.0,2.0,94,0.00,,,0.36,Wunderground v.1.13,2013-01-17 02:00:00,
2013-01-16 21:05:00,31.9,30.1,29.82,West,278,0.0,1.0,93,0.00,,,0.36,Wunderground v.1.13,2013-01-17 02:05:00,
2013-01-16 21:10:00,31.9,30.4,29.82,WNW,286,1.0,1.0,94,0.00,,,0.36,Wunderground v.1.13,2013-01-17 02:10:00,
2013-01-16 21:15:00,31.9,30.4,29.82,West,266,3.0,4.0,94,0.00,,,0.36,Wunderground v.1.13,2013-01-17 02:15:00,
2013-01-16 21:20:00,31.7,29.9,29.82,West,267,2.0,5.0,93,0.00,,,0.36,Wunderground v.1.13,2013-01-17 02:20:00,
2013-01-16 21:25:00,31.6,29.8,29.82,NE,45,1.0,2.0,93,0.00,,,0.36,Wunderground v.1.13,2013-01-17 02:25:00,
2013-01-16 21:31:00,31.5,29.7,29.82,NW,322,2.0,3.0,93,0.00,,,0.36,Wunderground v.1.13,2013-01-17 02:31:00,
2013-01-16 21:36:00,31.3,29.5,29.83,SSE,167,0.0,2.0,93,0.00,,,0.36,Wunderground v.1.13,2013-01-17 02:36:00,
2013-01-16 21:41:00,31.2,29.1,29.83,WSW,240,0.0,1.0,92,0.00,,,0.36,Wunderground v.1.13,2013-01-17 02:41:00,
2013-01-16 21:46:00,30.9,28.9,29.83,NNW,340,0.0,2.0,92,0.00,,,0.36,Wunderground v.1.13,2013-01-17 02:46:00,
2013-01-16 21:51:00,30.7,28.7,29.82,West,259,1.0,1.0,92,0.00,,,0.36,Wunderground v.1.13,2013-01-17 02:51:00,
2013-01-16 21:56:00,30.6,28.6,29.83,WSW,238,1.0,4.0,92,0.00,,,0.36,Wunderground v.1.13,2013-01-17 02:56:00,
2013-01-16 22:01:00,30.5,28.2,29.83,West,265,1.0,1.0,91,0.00,,,0.36,Wunderground v.1.13,2013-01-17 03:01:00,
2013-01-16 22:06:00,30.4,28.1,29.82,SW,229,2.0,2.0,91,0.00,,,0.36,Wunderground v.1.13,2013-01-17 03:06:00,
2013-01-16 22:11:00,30.3,28.0,29.82,SW,236,1.0,2.0,91,0.00,,,0.36,Wunderground v.1.13,2013-01-17 03:11:00,
2013-01-16 22:16:00,30.1,28.1,29.82,SW,227,1.0,3.0,92,0.00,,,0.36,Wunderground v.1.13,2013-01-17 03:16:00,
2013-01-16 22:21:00,30.0,28.0,29.82,WSW,238,3.0,3.0,92,0.00,,,0.36,Wunderground v.1.13,2013-01-17 03:21:00,
2013-01-16 22:26:00,29.9,27.9,29.82,SSW,213,0.0,1.0,92,0.00,,,0.36,Wunderground v.1.13,2013-01-17 03:26:00,
2013-01-16 22:32:00,29.8,27.8,29.82,SW,229,0.0,1.0,92,0.00,,,0.36,Wunderground v.1.13,2013-01-17 03:32:00,
2013-01-16 22:37:00,29.7,27.7,29.82,NW,317,2.0,3.0,92,0.00,,,0.36,Wunderground v.1.13,2013-01-17 03:37:00,
2013-01-16 22:42:00,30.0,28.2,29.82,West,263,0.0,4.0,93,0.00,,,0.36,Wunderground v.1.13,2013-01-17 03:42:00,
2013-01-16 22:47:00,30.1,28.3,29.82,West,269,3.0,3.0,93,0.00,,,0.36,Wunderground v.1.13,2013-01-17 03:47:00,
2013-01-16 22:52:00,30.1,28.1,29.82,West,259,0.0,2.0,92,0.00,,,0.36,Wunderground v.1.13,2013-01-17 03:52:00,
2013-01-16 22:57:00,30.1,28.1,29.82,West,261,3.0,7.0,92,0.00,,,0.36,Wunderground v.1.13,2013-01-17 03:57:00,
2013-01-16 23:02:00,30.3,28.3,29.82,WNW,296,2.0,6.0,92,0.00,,,0.36,Wunderground v.1.13,2013-01-17 04:02:00,
2013-01-16 23:07:00,30.1,28.1,29.82,WSW,257,3.0,5.0,92,0.00,,,0.36,Wunderground v.1.13,2013-01-17 04:07:00,
2013-01-16 23:12:00,30.1,28.1,29.82,NNE,13,4.0,4.0,92,0.00,,,0.36,Wunderground v.1.13,2013-01-17 04:12:00,
2013-01-16 23:17:00,30.1,28.1,29.82,SW,223,0.0,3.0,92,0.00,,,0.36,Wunderground v.1.13,2013-01-17 04:17:00,
2013-01-16 23:22:00,30.0,28.0,29.82,WSW,247,1.0,3.0,92,0.00,,,0.36,Wunderground v.1.13,2013-01-17 04:22:00,
2013-01-16 23:28:00,29.8,27.8,29.83,West,259,1.0,2.0,92,0.00,,,0.36,Wunderground v.1.13,2013-01-17 04:28:00,
2013-01-16 23:33:00,29.6,27.6,29.82,West,270,0.0,1.0,92,0.00,,,0.36,Wunderground v.1.13,2013-01-17 04:33:00,
2013-01-16 23:38:00,29.5,27.7,29.82,West,270,0.0,1.0,93,0.00,,,0.36,Wunderground v.1.13,2013-01-17 04:38:00,
2013-01-16 23:43:00,29.3,27.3,29.81,West,270,0.0,2.0,92,0.00,,,0.36,Wunderground v.1.13,2013-01-17 04:43:00,
2013-01-16 23:48:00,29.2,27.2,29.81,SE,136,0.0,0.0,92,0.00,,,0.36,Wunderground v.1.13,2013-01-17 04:48:00,
2013-01-16 23:53:00,28.9,26.9,29.82,South,181,0.0,2.0,92,0.00,,,0.36,Wunderground v.1.13,2013-01-17 04:53:00,
2013-01-16 23:58:00,28.7,26.7,29.82,South,181,0.0,2.0,92,0.00,,,0.36,Wunderground v.1.13,2013-01-17 04:58:00,